createdAt,value
2018-03-28T00:00:00.120Z,74.46
2018-03-28T00:02:27.625Z,74.69
2018-03-28T00:04:55.111Z,74.24
2018-03-28T00:07:22.611Z,74.98
2018-03-28T00:09:50.099Z,74.95
2018-03-28T00:12:17.608Z,74.77
2018-03-28T00:14:45.094Z,75.11
2018-03-28T00:17:12.603Z,75.39
2018-03-28T00:19:40.088Z,75.61
2018-03-28T00:22:07.599Z,75.58
2018-03-28T00:24:35.108Z,75.76
2018-03-28T00:27:02.615Z,75.53
2018-03-28T00:29:30.124Z,75.14
2018-03-28T00:31:57.635Z,75.22
2018-03-28T00:34:25.130Z,75.49
2018-03-28T00:36:52.631Z,75.64
2018-03-28T00:39:20.144Z,75.58
2018-03-28T00:41:47.620Z,75.69
2018-03-28T00:44:15.131Z,75.65
2018-03-28T00:46:42.622Z,75.83
2018-03-28T00:49:10.132Z,75.90
2018-03-28T00:51:37.614Z,75.63
2018-03-28T00:54:05.119Z,75.01
2018-03-28T00:56:32.606Z,75.00
2018-03-28T00:59:00.111Z,75.00
2018-03-28T01:01:27.596Z,74.96
2018-03-28T01:03:55.108Z,75.03
2018-03-28T01:06:22.595Z,74.77
2018-03-28T01:08:50.112Z,74.99
2018-03-28T01:11:17.604Z,75.11
2018-03-28T01:13:45.128Z,75.00
2018-03-28T01:16:12.643Z,74.98
2018-03-28T01:18:40.320Z,74.79
2018-03-28T01:21:07.815Z,75.14
2018-03-28T01:23:35.336Z,75.91
2018-03-28T01:26:02.824Z,76.00
2018-03-28T01:28:30.338Z,76.53
2018-03-28T01:30:57.853Z,76.97
2018-03-28T01:33:25.376Z,76.97
2018-03-28T01:35:52.935Z,77.01
2018-03-28T01:38:20.448Z,76.58
2018-03-28T01:40:47.931Z,76.71
2018-03-28T01:43:15.436Z,76.49
2018-03-28T01:45:42.936Z,76.61
2018-03-28T01:48:10.446Z,75.96
2018-03-28T01:50:37.946Z,75.48
2018-03-28T01:53:05.431Z,75.08
2018-03-28T01:55:32.949Z,74.87
2018-03-28T01:58:00.488Z,75.16
2018-03-28T02:00:28.007Z,75.15
2018-03-28T02:02:55.491Z,75.34
2018-03-28T02:05:22.998Z,74.89
2018-03-28T02:07:50.487Z,75.16
2018-03-28T02:10:18.007Z,75.30
2018-03-28T02:12:45.496Z,75.24
2018-03-28T02:15:13.097Z,75.40
2018-03-28T02:17:40.621Z,75.36
2018-03-28T02:20:08.134Z,75.37
2018-03-28T02:22:35.620Z,75.33
2018-03-28T02:25:03.131Z,74.98
2018-03-28T02:27:30.643Z,74.96
2018-03-28T02:29:58.159Z,75.02
2018-03-28T02:32:25.683Z,74.35
2018-03-28T02:34:53.412Z,74.23
2018-03-28T02:37:20.905Z,74.27
2018-03-28T02:39:48.424Z,73.97
2018-03-28T02:42:15.910Z,73.83
2018-03-28T02:44:43.428Z,73.63
2018-03-28T02:47:10.916Z,73.55
2018-03-28T02:49:38.435Z,73.43
2018-03-28T02:52:05.921Z,71.99
2018-03-28T02:54:33.436Z,71.84
2018-03-28T02:57:01.069Z,72.29
2018-03-28T02:59:28.572Z,72.16
2018-03-28T03:01:56.075Z,71.40
2018-03-28T03:04:23.663Z,70.90
2018-03-28T03:06:51.178Z,70.79
2018-03-28T03:09:18.691Z,70.83
2018-03-28T03:11:46.198Z,70.45
2018-03-28T03:14:13.787Z,70.62
2018-03-28T03:16:41.302Z,70.57
2018-03-28T03:19:08.812Z,70.91
2018-03-28T03:21:36.328Z,70.34
2018-03-28T03:24:03.819Z,70.77
2018-03-28T03:26:31.711Z,70.65
2018-03-28T03:28:59.411Z,70.64
2018-03-28T03:31:26.983Z,69.96
2018-03-28T03:33:54.468Z,69.98
2018-03-28T03:36:21.982Z,69.27
2018-03-28T03:38:49.474Z,69.59
2018-03-28T03:41:17.020Z,69.70
2018-03-28T03:43:44.514Z,68.98
2018-03-28T03:46:12.062Z,69.36
2018-03-28T03:48:39.551Z,69.07
2018-03-28T03:51:07.057Z,68.86
2018-03-28T03:53:34.543Z,68.68
2018-03-28T03:56:02.079Z,68.89
2018-03-28T03:58:29.569Z,68.62
2018-03-28T04:00:57.066Z,68.74
2018-03-28T04:03:24.632Z,69.19
2018-03-28T04:05:52.152Z,69.18
2018-03-28T04:08:19.776Z,69.36
2018-03-28T04:10:47.322Z,69.17
2018-03-28T04:13:14.831Z,68.98
2018-03-28T04:15:42.320Z,68.18
2018-03-28T04:18:09.844Z,68.74
2018-03-28T04:20:37.392Z,68.16
2018-03-28T04:23:04.895Z,68.59
2018-03-28T04:25:32.424Z,68.26
2018-03-28T04:27:59.971Z,67.65
2018-03-28T04:30:27.451Z,67.60
2018-03-28T04:32:54.958Z,67.57
2018-03-28T04:35:22.440Z,67.97
2018-03-28T04:37:50.097Z,67.56
2018-03-28T04:40:17.581Z,67.82
2018-03-28T04:42:45.126Z,67.49
2018-03-28T04:45:12.679Z,67.51
2018-03-28T04:47:40.184Z,67.51
2018-03-28T04:50:07.671Z,67.40
2018-03-28T04:52:35.184Z,67.63
2018-03-28T04:55:02.667Z,67.72
2018-03-28T04:57:30.187Z,68.03
2018-03-28T04:59:57.703Z,67.88
2018-03-28T05:02:25.241Z,67.92
2018-03-28T05:04:52.748Z,68.16
2018-03-28T05:07:20.243Z,67.90
2018-03-28T05:09:47.764Z,68.20
2018-03-28T05:12:15.255Z,68.42
2018-03-28T05:14:42.780Z,68.39
2018-03-28T05:17:10.280Z,68.64
2018-03-28T05:19:37.797Z,68.34
2018-03-28T05:22:05.282Z,68.60
2018-03-28T05:24:32.819Z,68.85
2018-03-28T05:27:00.306Z,69.10
2018-03-28T05:29:27.837Z,69.27
2018-03-28T05:31:55.323Z,69.31
2018-03-28T05:34:22.847Z,69.35
2018-03-28T05:36:50.338Z,69.51
2018-03-28T05:39:17.865Z,69.66
2018-03-28T05:41:45.349Z,69.63
2018-03-28T05:44:12.855Z,69.87
2018-03-28T05:46:40.384Z,69.99
2018-03-28T05:49:07.939Z,69.98
2018-03-28T05:51:35.459Z,70.09
2018-03-28T05:54:02.984Z,69.89
2018-03-28T05:56:30.505Z,69.96
2018-03-28T05:58:58.034Z,70.12
2018-03-28T06:01:25.602Z,70.26
2018-03-28T06:03:53.171Z,70.30
2018-03-28T06:06:20.654Z,70.35
2018-03-28T06:08:48.154Z,70.08
2018-03-28T06:11:15.664Z,70.07
2018-03-28T06:13:43.168Z,70.32
2018-03-28T06:16:10.704Z,70.45
2018-03-28T06:18:38.196Z,70.61
2018-03-28T06:21:05.776Z,70.14
2018-03-28T06:23:33.310Z,70.14
2018-03-28T06:26:00.994Z,70.27
2018-03-28T06:28:28.488Z,70.08
2018-03-28T06:30:56.004Z,70.30
2018-03-28T06:33:23.496Z,69.97
2018-03-28T06:35:51.280Z,69.67
2018-03-28T06:38:18.800Z,69.71
2018-03-28T06:40:46.363Z,69.68
2018-03-28T06:43:13.879Z,69.51
2018-03-28T06:45:41.400Z,69.75
2018-03-28T06:48:08.904Z,69.67
2018-03-28T06:50:36.431Z,69.38
2018-03-28T06:53:03.922Z,69.83
2018-03-28T06:55:31.452Z,69.40
2018-03-28T06:57:59.160Z,69.46
2018-03-28T07:00:26.680Z,69.04
2018-03-28T07:02:54.167Z,68.86
2018-03-28T07:05:21.697Z,68.91
2018-03-28T07:07:49.313Z,68.77
2018-03-28T07:10:16.844Z,68.50
2018-03-28T07:12:44.342Z,67.70
2018-03-28T07:15:11.877Z,67.64
2018-03-28T07:17:39.381Z,67.04
2018-03-28T07:20:06.904Z,66.77
2018-03-28T07:22:34.552Z,66.12
2018-03-28T07:25:02.044Z,66.04
2018-03-28T07:27:29.580Z,65.58
2018-03-28T07:29:57.098Z,65.51
2018-03-28T07:32:24.640Z,64.97
2018-03-28T07:34:52.136Z,64.39
2018-03-28T07:37:19.730Z,64.02
2018-03-28T07:39:47.215Z,63.74
2018-03-28T07:42:14.756Z,63.70
2018-03-28T07:44:42.243Z,64.35
2018-03-28T07:47:09.751Z,64.76
2018-03-28T07:49:37.321Z,64.64
2018-03-28T07:52:04.828Z,64.08
2018-03-28T07:54:32.312Z,64.59
2018-03-28T07:57:00.136Z,65.25
2018-03-28T07:59:27.691Z,66.92
2018-03-28T08:01:55.244Z,67.09
2018-03-28T08:04:22.799Z,67.58
2018-03-28T08:06:50.303Z,68.25
2018-03-28T08:09:17.917Z,68.15
2018-03-28T08:11:45.468Z,68.00
2018-03-28T08:14:13.020Z,68.70
2018-03-28T08:16:40.599Z,68.88
2018-03-28T08:19:08.105Z,68.71
2018-03-28T08:21:35.611Z,68.44
2018-03-28T08:24:03.135Z,68.36
2018-03-28T08:26:30.631Z,67.72
2018-03-28T08:28:58.153Z,67.70
2018-03-28T08:31:25.752Z,67.75
2018-03-28T08:33:53.265Z,67.27
2018-03-28T08:36:20.796Z,66.98
2018-03-28T08:38:48.312Z,67.00
2018-03-28T08:41:15.804Z,66.96
2018-03-28T08:43:43.322Z,67.41
2018-03-28T08:46:10.811Z,66.96
2018-03-28T08:48:38.315Z,65.69
2018-03-28T08:51:05.811Z,64.34
2018-03-28T08:53:33.343Z,63.70
2018-03-28T08:56:00.864Z,62.23
2018-03-28T08:58:28.447Z,61.70
2018-03-28T09:00:55.938Z,60.89
2018-03-28T09:03:23.471Z,60.53
2018-03-28T09:05:50.961Z,60.52
2018-03-28T09:08:18.484Z,60.21
2018-03-28T09:10:45.976Z,59.74
2018-03-28T09:13:13.531Z,59.58
2018-03-28T09:15:41.092Z,59.03
2018-03-28T09:18:08.720Z,58.94
2018-03-28T09:20:36.363Z,58.25
2018-03-28T09:23:03.879Z,56.94
2018-03-28T09:25:31.388Z,57.18
2018-03-28T09:27:58.912Z,55.96
2018-03-28T09:30:26.420Z,55.55
2018-03-28T09:32:53.917Z,54.85
2018-03-28T09:35:21.444Z,55.29
2018-03-28T09:37:50.051Z,54.04
2018-03-28T09:40:18.532Z,55.76
2018-03-28T09:42:46.015Z,55.48
2018-03-28T09:45:13.541Z,55.84
2018-03-28T09:47:41.047Z,56.06
2018-03-28T09:50:09.487Z,57.27
2018-03-28T09:52:36.972Z,57.44
2018-03-28T09:55:04.531Z,58.94
2018-03-28T09:57:32.040Z,59.93
2018-03-28T09:59:59.563Z,60.22
2018-03-28T10:02:30.952Z,59.81
2018-03-28T10:05:00.308Z,58.58
2018-03-28T10:07:27.816Z,58.37
2018-03-28T10:09:55.328Z,59.81
2018-03-28T10:12:22.833Z,58.80
2018-03-28T10:14:50.359Z,59.40
2018-03-28T10:17:17.867Z,58.58
2018-03-28T10:19:45.395Z,58.75
2018-03-28T10:22:12.884Z,56.27
2018-03-28T10:24:40.452Z,55.18
2018-03-28T10:27:07.938Z,52.97
2018-03-28T10:29:35.486Z,52.81
2018-03-28T10:32:02.980Z,53.25
2018-03-28T10:34:30.505Z,51.37
2018-03-28T10:36:58.027Z,53.83
2018-03-28T10:39:25.595Z,53.69
2018-03-28T10:41:53.098Z,55.28
2018-03-28T10:44:20.612Z,56.42
2018-03-28T10:46:48.219Z,55.66
2018-03-28T10:49:15.746Z,56.43
2018-03-28T10:51:43.265Z,58.18
2018-03-28T10:54:10.775Z,57.43
2018-03-28T10:56:38.288Z,57.20
2018-03-28T10:59:05.796Z,58.15
2018-03-28T11:01:33.388Z,57.23
2018-03-28T11:04:00.944Z,56.65
2018-03-28T11:06:28.463Z,56.49
2018-03-28T11:08:55.973Z,56.26
2018-03-28T11:11:23.483Z,57.75
2018-03-28T11:13:50.971Z,56.05
2018-03-28T11:16:18.496Z,58.00
2018-03-28T11:18:46.006Z,57.00
2018-03-28T11:21:13.514Z,56.70
2018-03-28T11:23:41.068Z,56.16
2018-03-28T11:26:08.639Z,55.89
2018-03-28T11:28:36.139Z,57.37
2018-03-28T11:31:03.670Z,54.18
2018-03-28T11:33:31.162Z,53.98
2018-03-28T11:35:58.683Z,55.97
2018-03-28T11:38:26.259Z,55.03
2018-03-28T11:40:53.767Z,54.27
2018-03-28T11:43:21.273Z,55.03
2018-03-28T11:45:48.787Z,55.59
2018-03-28T11:48:16.280Z,54.16
2018-03-28T11:50:43.763Z,54.13
2018-03-28T11:53:11.284Z,54.12
2018-03-28T11:55:38.858Z,54.64
2018-03-28T11:58:06.577Z,53.99
2018-03-28T12:00:34.068Z,54.06
2018-03-28T12:03:01.663Z,54.00
2018-03-28T12:05:29.151Z,54.48
2018-03-28T12:07:56.682Z,54.91
2018-03-28T12:10:24.202Z,55.17
2018-03-28T12:12:51.760Z,55.54
2018-03-28T12:15:19.326Z,55.83
2018-03-28T12:17:46.835Z,56.96
2018-03-28T12:20:14.327Z,58.63
2018-03-28T12:22:41.843Z,59.59
2018-03-28T12:25:09.354Z,60.93
2018-03-28T12:27:36.919Z,62.05
2018-03-28T12:30:04.453Z,64.05
2018-03-28T12:32:31.971Z,64.84
2018-03-28T12:34:59.505Z,65.97
2018-03-28T12:37:27.072Z,67.98
2018-03-28T12:39:54.557Z,65.89
2018-03-28T12:42:22.174Z,67.13
2018-03-28T12:44:49.769Z,68.15
2018-03-28T12:47:17.406Z,68.66
2018-03-28T12:49:44.920Z,67.86
2018-03-28T12:52:12.457Z,68.36
2018-03-28T12:54:40.074Z,69.14
2018-03-28T12:57:07.556Z,68.23
2018-03-28T12:59:35.064Z,68.23
2018-03-28T13:02:02.556Z,68.17
2018-03-28T13:04:30.063Z,68.25
2018-03-28T13:06:57.543Z,67.36
2018-03-28T13:09:25.089Z,68.27
2018-03-28T13:11:52.580Z,67.43
2018-03-28T13:14:20.098Z,67.88
2018-03-28T13:16:47.614Z,67.57
2018-03-28T13:19:15.182Z,68.99
2018-03-28T13:21:42.667Z,67.30
2018-03-28T13:24:10.176Z,68.20
2018-03-28T13:26:37.663Z,68.72
2018-03-28T13:29:05.168Z,69.24
2018-03-28T13:31:33.302Z,70.05
2018-03-28T13:34:00.834Z,70.04
2018-03-28T13:36:28.350Z,69.45
2018-03-28T13:38:55.859Z,69.65
2018-03-28T13:41:23.345Z,71.99
2018-03-28T13:43:50.856Z,72.51
2018-03-28T13:46:18.353Z,73.61
2018-03-28T13:48:45.875Z,74.42
2018-03-28T13:51:13.363Z,74.53
2018-03-28T13:53:40.891Z,74.66
2018-03-28T13:56:08.399Z,76.03
2018-03-28T13:58:35.916Z,76.78
2018-03-28T14:01:03.425Z,77.19
2018-03-28T14:03:30.915Z,77.51
2018-03-28T14:05:58.443Z,77.69
2018-03-28T14:08:25.936Z,77.42
2018-03-28T14:10:53.471Z,77.48
2018-03-28T14:13:20.983Z,78.39
2018-03-28T14:15:48.496Z,79.22
2018-03-28T14:18:16.003Z,78.80
2018-03-28T14:20:43.549Z,78.55
2018-03-28T14:23:11.040Z,78.52
2018-03-28T14:25:38.568Z,78.36
2018-03-28T14:28:06.224Z,79.31
2018-03-28T14:30:33.779Z,80.48
2018-03-28T14:33:01.257Z,80.59
2018-03-28T14:35:28.807Z,79.76
2018-03-28T14:37:56.321Z,79.85
2018-03-28T14:40:23.843Z,79.62
2018-03-28T14:42:54.584Z,78.04
2018-03-28T14:45:18.906Z,73.95
2018-03-28T14:47:46.400Z,75.17
2018-03-28T14:50:13.907Z,75.15
2018-03-28T14:52:41.391Z,75.45
2018-03-28T14:55:08.927Z,73.61
2018-03-28T14:57:36.476Z,74.99
2018-03-28T15:00:04.020Z,74.26
2018-03-28T15:02:31.516Z,73.50
2018-03-28T15:04:58.999Z,75.05
2018-03-28T15:07:26.539Z,74.19
2018-03-28T15:09:54.037Z,74.69
2018-03-28T15:12:21.577Z,74.89
2018-03-28T15:14:49.112Z,75.60
2018-03-28T15:17:16.739Z,75.08
2018-03-28T15:19:44.488Z,76.45
2018-03-28T15:22:12.091Z,76.51
2018-03-28T15:24:39.645Z,76.18
2018-03-28T15:27:07.261Z,76.72
2018-03-28T15:29:34.865Z,76.35
2018-03-28T15:32:02.677Z,76.48
2018-03-28T15:34:30.446Z,76.51
2018-03-28T15:36:58.218Z,76.85
2018-03-28T15:39:26.020Z,77.57
2018-03-28T15:41:53.739Z,77.70
2018-03-28T15:44:21.607Z,78.07
2018-03-28T15:46:49.475Z,78.58
2018-03-28T15:49:17.144Z,78.73
2018-03-28T15:51:44.887Z,79.22
2018-03-28T15:54:12.613Z,79.12
2018-03-28T15:56:40.428Z,79.26
2018-03-28T15:59:08.122Z,79.72
2018-03-28T16:01:36.468Z,77.77
2018-03-28T16:04:04.138Z,79.06
2018-03-28T16:06:31.797Z,79.10
2018-03-28T16:08:59.434Z,79.02
2018-03-28T16:11:27.097Z,80.10
2018-03-28T16:13:54.727Z,80.66
2018-03-28T16:16:22.407Z,78.78
2018-03-28T16:18:50.105Z,80.68
2018-03-28T16:21:17.866Z,81.76
2018-03-28T16:23:45.617Z,77.01
2018-03-28T16:26:13.293Z,76.44
2018-03-28T16:28:41.058Z,77.47
2018-03-28T16:31:08.826Z,77.93
2018-03-28T16:33:36.794Z,75.03
2018-03-28T16:36:04.456Z,76.12
2018-03-28T16:38:32.115Z,76.17
2018-03-28T16:40:59.900Z,74.50
2018-03-28T16:43:27.801Z,72.95
2018-03-28T16:45:55.514Z,71.55
2018-03-28T16:48:23.145Z,71.57
2018-03-28T16:50:50.735Z,71.03
2018-03-28T16:53:18.497Z,71.83
2018-03-28T16:55:46.084Z,71.63
2018-03-28T16:58:13.930Z,72.10
2018-03-28T17:00:41.792Z,71.68
2018-03-28T17:03:09.476Z,71.80
2018-03-28T17:05:37.119Z,71.57
2018-03-28T17:08:04.836Z,72.22
2018-03-28T17:10:32.549Z,72.83
2018-03-28T17:13:00.411Z,72.09
2018-03-28T17:15:28.067Z,71.35
2018-03-28T17:17:55.722Z,71.71
2018-03-28T17:20:23.513Z,73.45
2018-03-28T17:22:51.210Z,73.71
2018-03-28T17:25:18.719Z,73.18
2018-03-28T17:27:46.330Z,73.73
2018-03-28T17:30:13.942Z,72.41
2018-03-28T17:32:41.624Z,74.09
2018-03-28T17:35:09.213Z,74.25
2018-03-28T17:37:36.797Z,75.06
2018-03-28T17:40:04.490Z,74.27
2018-03-28T17:42:32.148Z,75.61
2018-03-28T17:44:59.823Z,76.18
2018-03-28T17:47:27.448Z,76.56
2018-03-28T17:49:55.218Z,79.06
2018-03-28T17:52:22.897Z,79.84
2018-03-28T17:54:50.566Z,80.43
2018-03-28T17:57:18.235Z,80.32
2018-03-28T17:59:46.801Z,80.80
2018-03-28T18:02:14.571Z,81.14
2018-03-28T18:04:42.233Z,81.06
2018-03-28T18:07:09.997Z,80.04
2018-03-28T18:09:37.866Z,80.18
2018-03-28T18:12:05.533Z,79.93
2018-03-28T18:14:33.291Z,81.82
2018-03-28T18:17:00.953Z,82.44
2018-03-28T18:19:28.595Z,82.44
2018-03-28T18:21:56.481Z,82.35
2018-03-28T18:24:24.143Z,83.90
2018-03-28T18:26:51.709Z,83.45
2018-03-28T18:29:19.574Z,83.49
2018-03-28T18:31:47.334Z,83.65
2018-03-28T18:34:15.057Z,84.24
2018-03-28T18:36:42.765Z,84.09
2018-03-28T18:39:10.422Z,84.22
2018-03-28T18:41:38.084Z,84.17
2018-03-28T18:44:05.746Z,84.54
2018-03-28T18:46:33.408Z,84.90
2018-03-28T18:49:01.074Z,85.14
2018-03-28T18:51:28.803Z,84.83
2018-03-28T18:53:57.316Z,83.75
2018-03-28T18:56:24.905Z,83.62
2018-03-28T18:58:52.648Z,81.84
2018-03-28T19:01:20.250Z,82.90
2018-03-28T19:03:47.998Z,82.10
2018-03-28T19:06:15.858Z,83.42
2018-03-28T19:08:43.521Z,82.15
2018-03-28T19:11:11.208Z,82.89
2018-03-28T19:13:38.997Z,82.69
2018-03-28T19:16:06.515Z,83.40
2018-03-28T19:18:34.193Z,82.88
2018-03-28T19:21:02.060Z,81.82
2018-03-28T19:23:29.556Z,81.52
2018-03-28T19:25:57.162Z,80.67
2018-03-28T19:28:24.684Z,82.21
2018-03-28T19:30:52.227Z,82.41
2018-03-28T19:33:19.835Z,82.12
2018-03-28T19:35:47.371Z,81.96
2018-03-28T19:38:14.860Z,81.89
2018-03-28T19:40:42.468Z,82.52
2018-03-28T19:43:09.984Z,82.65
2018-03-28T19:45:37.516Z,82.03
2018-03-28T19:48:05.048Z,82.41
2018-03-28T19:50:32.532Z,82.36
2018-03-28T19:53:00.260Z,81.97
2018-03-28T19:55:27.720Z,81.81
2018-03-28T19:57:55.263Z,80.84
2018-03-28T20:00:22.777Z,82.28
2018-03-28T20:02:50.303Z,82.24
2018-03-28T20:05:17.795Z,80.74
2018-03-28T20:07:45.332Z,81.63
2018-03-28T20:10:12.858Z,81.68
2018-03-28T20:12:40.531Z,81.30
2018-03-28T20:15:11.455Z,81.85
2018-03-28T20:17:38.989Z,82.41
2018-03-28T20:20:06.566Z,82.33
2018-03-28T20:22:34.085Z,82.31
2018-03-28T20:25:01.629Z,81.39
2018-03-28T20:27:29.156Z,80.35
2018-03-28T20:29:56.664Z,80.78
2018-03-28T20:32:24.268Z,81.49
2018-03-28T20:34:51.758Z,81.36
2018-03-28T20:37:19.275Z,80.89
2018-03-28T20:39:46.771Z,81.30
2018-03-28T20:42:14.291Z,81.76
2018-03-28T20:44:41.781Z,81.32
2018-03-28T20:47:09.430Z,81.08
2018-03-28T20:49:36.941Z,80.55
2018-03-28T20:52:04.446Z,81.71
2018-03-28T20:54:31.967Z,81.08
2018-03-28T20:57:00.552Z,80.83
2018-03-28T20:59:28.067Z,80.64
2018-03-28T21:01:55.597Z,81.86
2018-03-28T21:04:23.176Z,81.47
2018-03-28T21:06:50.729Z,82.53
2018-03-28T21:09:18.265Z,82.55
2018-03-28T21:11:45.792Z,83.65
2018-03-28T21:14:13.402Z,84.31
2018-03-28T21:16:40.883Z,84.47
2018-03-28T21:19:08.393Z,82.23
2018-03-28T21:21:35.883Z,81.47
2018-03-28T21:24:03.462Z,82.28
2018-03-28T21:26:31.094Z,80.48
2018-03-28T21:28:58.630Z,80.91
2018-03-28T21:31:26.112Z,81.29
2018-03-28T21:33:53.631Z,82.19
2018-03-28T21:36:21.123Z,82.01
2018-03-28T21:38:48.696Z,82.59
2018-03-28T21:41:16.212Z,82.51
2018-03-28T21:43:43.748Z,80.59
2018-03-28T21:46:11.228Z,79.47
2018-03-28T21:48:38.813Z,79.45
2018-03-28T21:51:06.297Z,79.50
2018-03-28T21:53:33.880Z,79.08
2018-03-28T21:56:01.402Z,79.23
2018-03-28T21:58:29.019Z,80.07
2018-03-28T22:00:56.530Z,79.08
2018-03-28T22:03:24.035Z,79.15
2018-03-28T22:05:51.531Z,79.70
2018-03-28T22:08:19.041Z,79.99
2018-03-28T22:10:46.552Z,81.58
2018-03-28T22:13:14.031Z,80.71
2018-03-28T22:15:41.551Z,80.24
2018-03-28T22:18:09.046Z,80.43
2018-03-28T22:20:36.576Z,80.08
2018-03-28T22:23:04.068Z,80.50
2018-03-28T22:25:31.590Z,80.07
2018-03-28T22:27:59.096Z,80.67
2018-03-28T22:30:26.608Z,81.40
2018-03-28T22:32:54.147Z,81.63
2018-03-28T22:35:21.653Z,81.69
2018-03-28T22:37:49.510Z,81.41
2018-03-28T22:40:17.028Z,82.16
2018-03-28T22:42:44.524Z,82.53
2018-03-28T22:45:12.023Z,82.82
2018-03-28T22:47:39.507Z,83.18
2018-03-28T22:50:07.027Z,83.58
2018-03-28T22:52:34.503Z,82.62
2018-03-28T22:55:02.021Z,82.72
2018-03-28T22:57:29.523Z,82.75
2018-03-28T22:59:57.006Z,82.54
2018-03-28T23:02:24.515Z,82.07
2018-03-28T23:04:52.008Z,81.23
2018-03-28T23:07:19.615Z,80.85
2018-03-28T23:09:47.108Z,80.65
2018-03-28T23:12:14.619Z,77.78
2018-03-28T23:14:42.176Z,74.60
2018-03-28T23:17:09.731Z,75.57
2018-03-28T23:19:37.211Z,73.79
2018-03-28T23:22:04.723Z,71.97
2018-03-28T23:24:32.205Z,71.32
2018-03-28T23:26:59.813Z,72.70
2018-03-28T23:29:27.312Z,72.88
2018-03-28T23:31:54.823Z,72.61
2018-03-28T23:34:22.308Z,70.58
2018-03-28T23:36:49.820Z,70.54
2018-03-28T23:39:17.307Z,71.76
2018-03-28T23:41:44.809Z,70.25
2018-03-28T23:44:12.300Z,70.89
2018-03-28T23:46:39.817Z,68.10
2018-03-28T23:49:07.340Z,69.44
2018-03-28T23:51:34.852Z,70.14
2018-03-28T23:54:02.385Z,68.91
2018-03-28T23:56:29.876Z,68.46
2018-03-28T23:58:57.378Z,68.17
